sim
Sign-in with your pilot id or email,
or register
Callsign
Passwort

Schedule Details

Flight Number: DLH756
Departure: Frankfurt Airport (EDDF) at 11:30
Arrival: Mumbai Chhatrapati Shivaji International Airport (VABB) at 19:30
Route: Lufthansa Passenger Schedule. Enter filed route here before submitting Pirep.

Weather Information
Getting current METAR information for EDDF 091520Z 21009KT 9999 VCSH FEW024TCU BKN035 07/05 Q1003 NOSIG
Getting current METAR information for VABB 091500Z 33005KT 3000 HZ NSC 29/22 Q1014 NOSIG

Schedule Frequency

Route Map